Meteo Giornale » Osservazioni meteo Stati Uniti (USA) » Fort Sill
ore: 16:33 - Osservazioni Meteo Fort Sill
Lat. 34° 36' N Lon. 98° 24' W Alt. 362 metri s.l.m.
39 °C
Poco Nuvoloso
Temp. 24 Ore
24 °C
39 °C
Sud
20.3 Km/h
Dew point 12 °C
Umidità 20 %
Visibilità 10 Km
Il sole sorge alle ore 07:06
Il sole tramonta alle ore 20:01
| Data e Ora | Cielo e Fenomeni | T °C | DP °C | Um. % | Pres. hPa | Vis. km | Vento km/h | |
|---|---|---|---|---|---|---|---|---|
| Oggi h: 16:33 | Poco Nuvoloso | 39 | 12 | 20 | 1012 | 10 | S 20.3 | |
| Oggi h: 15:55 | Sereno | 39 | 13 | 21 | 1012 | 10 | S/SE 13 | |
| Oggi h: 15:35 | Poco Nuvoloso | 37 | 13 | 23 | 1012 | 10 | S 24 | |
| Oggi h: 14:55 | Poco Nuvoloso | 39 | 13 | 21 | 1013 | 10 | S 14.8 | |
| Oggi h: 14:50 | Nuvoloso | 39 | 14 | 22 | 1013 | 10 | S 20.3 | |
| Oggi h: 13:55 | Sereno | 38 | 15 | 25 | 1014 | 10 | S/SO 14.8 | |
| Oggi h: 12:55 | Molto Nuvoloso | 36 | 15 | 28 | 1015 | 10 | S/SO 14.8 | |
| Oggi h: 11:55 | Sereno | 36 | 18 | 34 | 1015 | 10 | S/SE 18.5 | |
| Oggi h: 10:55 | Sereno | 34 | 19 | 41 | 1015 | 10 | SO 14.8 | |
| Oggi h: 09:55 | Sereno | 31 | 18 | 45 | 1015 | 10 | S/SO 13 | |
| Oggi h: 08:55 | Sereno | 28 | 17 | 51 | 1015 | 10 | S 11.1 | |
| Oggi h: 07:55 | Sereno | 24 | 16 | 60 | 1014 | 10 | N 0 | |
| Oggi h: 06:55 | Sereno | 24 | 15 | 57 | 1014 | 10 | S/SE 7.4 | |
| Oggi h: 05:55 | Sereno | 24 | 15 | 57 | 1013 | 10 | S/SE 7.4 | |
| Oggi h: 04:55 | Sereno | 25 | 14 | 50 | 1013 | 10 | N 5.5 | |
| Oggi h: 03:55 | Sereno | 26 | 14 | 47 | 1012 | 10 | S/SE 7.4 | |
| Oggi h: 02:55 | Sereno | 26 | 14 | 47 | 1012 | 10 | S/SE 7.4 | |
| Oggi h: 01:55 | Sereno | 27 | 14 | 44 | 1012 | 10 | S/SE 9.3 | |
| Oggi h: 00:55 | Sereno | 28 | 13 | 39 | 1012 | 10 | S/SE 11.1 | |
| Ieri h: 23:55 | Sereno | 29 | 13 | 37 | 1012 | 10 | S/SE 13 | |
| Ieri h: 22:55 | Sereno | 30 | 14 | 37 | 1011 | 10 | S/SE 13 | |
| Ieri h: 21:55 | Sereno | 32 | 13 | 31 | 1011 | 10 | S/SE 14.8 | |
| Ieri h: 20:55 | Sereno | 34 | 13 | 28 | 1010 | 10 | S/SE 16.7 | |
| Ieri h: 19:55 | Sereno | 36 | 13 | 25 | 1010 | 10 | S 20.3 | |
| Ieri h: 18:55 | Sereno | 38 | 11 | 19 | 1010 | 10 | S 18.5 | |
| Ieri h: 18:06 | Sereno | 39 | 12 | 20 | 1010 | 10 | S 22.2 | |
| Ieri h: 17:55 | Sereno | 39 | 12 | 20 | 1010 | 10 | S/SE 22.2 | |



